Time;durP1;ratioP1;P1;durP2;ratioP2;P2;SDS_P1;SDS_P2;PMS_P1;PMS_P2;Temp;Humidity;BMP_temperature;BMP_pressure;BME280_temperature;BME280_humidity;BME280_pressure;Samples;Min_cycle;Max_cycle;Signal;HPM_P1;HPM_P2
2022/04/10 00:01:24;;;;;;;11.25;7.50;;;;;;;10.75;66.54;99793.95;1821541;78;21475;-82
2022/04/10 00:03:51;;;;;;;16.52;8.98;;;;;;;10.73;66.59;99792.75;1821987;78;21408;-82
2022/04/10 00:06:17;;;;;;;10.48;5.92;;;;;;;10.72;66.77;99791.09;1821922;78;21121;-81
2022/04/10 00:08:45;;;;;;;12.07;7.42;;;;;;;10.73;66.78;99786.20;1821424;78;20974;-82
2022/04/10 00:11:13;;;;;;;11.70;7.37;;;;;;;10.72;66.84;99774.53;1821380;78;21061;-82
2022/04/10 00:13:41;;;;;;;9.43;6.65;;;;;;;10.72;66.91;99783.70;1821372;78;20911;-82
2022/04/10 00:16:08;;;;;;;10.68;6.42;;;;;;;10.70;67.05;99783.81;1821357;78;21400;-82
2022/04/10 00:18:36;;;;;;;10.75;6.75;;;;;;;10.68;67.16;99777.02;1821781;78;21898;-82
2022/04/10 00:21:04;;;;;;;12.63;6.97;;;;;;;10.66;67.34;99773.66;1822418;78;20955;-84
2022/04/10 00:23:31;;;;;;;13.48;6.80;;;;;;;10.64;67.54;99779.02;1824785;78;20914;-82
2022/04/10 00:25:59;;;;;;;11.48;6.10;;;;;;;10.63;67.61;99763.38;1824834;78;20936;-82
2022/04/10 00:28:28;;;;;;;10.58;6.70;;;;;;;10.62;67.82;99768.28;1824972;78;20923;-82
2022/04/10 00:30:54;;;;;;;13.38;7.03;;;;;;;10.60;67.94;99778.05;1825097;78;21180;-82
2022/04/10 00:33:21;;;;;;;13.68;7.05;;;;;;;10.58;68.05;99768.97;1825116;78;20848;-82
2022/04/10 00:35:49;;;;;;;14.15;6.97;;;;;;;10.57;68.35;99775.17;1824894;78;20891;-82
2022/04/10 00:38:15;;;;;;;15.70;7.50;;;;;;;10.55;68.45;99766.11;1824921;78;20962;-82
2022/04/10 00:40:43;;;;;;;12.93;6.72;;;;;;;10.54;68.53;99752.66;1825172;78;20919;-82
2022/04/10 00:43:10;;;;;;;14.23;6.90;;;;;;;10.54;68.69;99757.06;1826826;78;21107;-82
2022/04/10 00:45:37;;;;;;;11.75;7.62;;;;;;;10.53;68.87;99757.52;1825362;78;20984;-82
2022/04/10 00:48:04;;;;;;;10.40;6.72;;;;;;;10.54;68.91;99753.12;1825290;78;20896;-83
2022/04/10 00:50:31;;;;;;;15.78;7.42;;;;;;;10.54;68.88;99759.69;1824830;78;21419;-83
2022/04/10 00:52:59;;;;;;;10.95;7.62;;;;;;;10.54;68.97;99750.03;1797942;78;20872;-82
2022/04/10 00:55:27;;;;;;;13.53;7.17;;;;;;;10.53;69.09;99743.09;1825339;78;20903;-82
2022/04/10 00:57:54;;;;;;;16.42;6.90;;;;;;;10.51;69.32;99742.37;1824988;78;20963;-83
2022/04/10 01:00:20;;;;;;;19.87;7.60;;;;;;;10.50;69.45;99740.72;1825107;78;20923;-83
2022/04/10 01:02:47;;;;;;;9.35;6.35;;;;;;;10.49;69.48;99739.05;1825232;78;20891;-82
2022/04/10 01:05:14;;;;;;;11.28;7.37;;;;;;;10.48;69.69;99737.37;1824850;78;20934;-82
2022/04/10 01:07:42;;;;;;;15.23;7.53;;;;;;;10.47;69.97;99743.57;1824821;78;20978;-82
2022/04/10 01:10:09;;;;;;;14.40;7.97;;;;;;;10.47;70.03;99751.89;1825013;78;20887;-82
2022/04/10 01:12:37;;;;;;;14.03;8.15;;;;;;;10.45;70.11;99755.95;1824961;78;20951;-84
2022/04/10 01:15:09;;;;;;;12.88;8.00;;;;;;;10.44;70.25;99748.19;1824400;78;20978;-81
2022/04/10 01:17:39;;;;;;;13.48;8.83;;;;;;;10.43;70.42;99757.84;1824877;78;20907;-82
2022/04/10 01:20:07;;;;;;;17.02;9.65;;;;;;;10.42;70.49;99752.70;1824835;78;21821;-83
2022/04/10 01:22:37;;;;;;;14.15;8.55;;;;;;;10.41;70.54;99744.02;1797970;77;21404;-83
2022/04/10 01:25:08;;;;;;;18.27;10.43;;;;;;;10.42;70.61;99751.40;1798249;79;20856;-82
2022/04/10 01:27:39;;;;;;;12.55;8.95;;;;;;;10.42;70.67;99755.33;1797670;78;20962;-82
2022/04/10 01:30:10;;;;;;;20.32;10.68;;;;;;;10.43;70.86;99750.47;1797380;77;20915;-83
2022/04/10 01:32:36;;;;;;;15.25;9.75;;;;;;;10.44;70.81;99744.27;1797563;77;21112;-83
2022/04/10 01:35:06;;;;;;;16.05;11.08;;;;;;;10.44;70.85;99738.53;1797347;79;20970;-81
2022/04/10 01:37:35;;;;;;;19.35;11.70;;;;;;;10.44;70.93;99738.53;1797190;79;21337;-82
2022/04/10 01:40:04;;;;;;;18.85;10.88;;;;;;;10.42;70.94;99733.87;1763177;79;21011;-83
2022/04/10 01:42:31;;;;;;;12.95;9.28;;;;;;;10.41;70.98;99721.73;1797356;78;20915;-81
2022/04/10 01:44:59;;;;;;;15.48;9.28;;;;;;;10.38;71.03;99719.32;1797742;79;21254;-83
2022/04/10 01:47:26;;;;;;;14.03;9.13;;;;;;;10.36;71.04;99720.77;1768354;78;20946;-82
2022/04/10 01:49:53;;;;;;;17.30;9.75;;;;;;;10.34;71.17;99720.05;1797196;78;20938;-81
2022/04/10 01:52:22;;;;;;;18.57;9.53;;;;;;;10.34;71.21;99730.53;1797279;77;20895;-81
2022/04/10 01:54:50;;;;;;;18.05;10.98;;;;;;;10.31;71.21;99729.91;1797280;78;20907;-82
2022/04/10 01:57:17;;;;;;;18.80;9.85;;;;;;;10.30;71.27;99723.83;1794445;79;21126;-82
2022/04/10 01:59:43;;;;;;;20.08;10.72;;;;;;;10.29;71.40;99730.48;1797156;78;20907;-83
2022/04/10 02:02:11;;;;;;;15.32;10.20;;;;;;;10.27;71.39;99733.20;1797134;78;20871;-81
2022/04/10 02:04:38;;;;;;;16.30;10.53;;;;;;;10.26;71.38;99730.69;1797359;77;20868;-82
2022/04/10 02:07:05;;;;;;;16.87;11.05;;;;;;;10.26;71.39;99735.94;1768254;79;20891;-82
2022/04/10 02:09:33;;;;;;;19.02;10.98;;;;;;;10.25;71.39;99736.86;1798526;78;20982;-82
2022/04/10 02:12:00;;;;;;;16.35;10.45;;;;;;;10.24;71.43;99739.97;1797260;79;20848;-83
2022/04/10 02:14:28;;;;;;;16.75;10.25;;;;;;;10.25;71.43;99729.00;1797297;78;20891;-82
2022/04/10 02:16:56;;;;;;;19.00;11.97;;;;;;;10.25;71.44;99732.94;1797440;79;21439;-80
2022/04/10 02:19:23;;;;;;;21.55;11.18;;;;;;;10.25;71.45;99731.17;1797730;77;20958;-79
2022/04/10 02:21:49;;;;;;;15.08;10.60;;;;;;;10.23;71.50;99734.37;1809559;77;21200;-82
2022/04/10 02:24:17;;;;;;;15.13;10.18;;;;;;;10.23;71.53;99741.41;1825917;78;20883;-81
2022/04/10 02:26:45;;;;;;;26.35;12.68;;;;;;;10.21;71.57;99730.20;1825582;78;20950;-81
2022/04/10 02:29:12;;;;;;;15.23;11.10;;;;;;;10.18;71.63;99740.41;1825035;77;21040;-83
2022/04/10 02:31:39;;;;;;;15.98;10.63;;;;;;;10.17;71.72;99740.05;1824970;77;20840;-81
2022/04/10 02:34:06;;;;;;;13.65;11.03;;;;;;;10.16;71.83;99739.23;1825279;78;21216;-80
2022/04/10 02:36:33;;;;;;;18.50;11.63;;;;;;;10.16;71.83;99751.02;1824926;77;21017;-84
2022/04/10 02:39:00;;;;;;;16.95;11.10;;;;;;;10.15;71.83;99753.73;1824869;77;20860;-83
2022/04/10 02:41:27;;;;;;;20.32;11.30;;;;;;;10.16;71.81;99752.80;1824911;77;20990;-82
2022/04/10 02:43:54;;;;;;;19.37;10.93;;;;;;;10.16;71.80;99757.56;1825067;78;20931;-82
2022/04/10 02:46:21;;;;;;;26.48;13.98;;;;;;;10.15;71.85;99750.64;1824914;78;21133;-81
2022/04/10 02:48:48;;;;;;;20.72;11.70;;;;;;;10.15;71.88;99757.66;1824887;78;20883;-82
2022/04/10 02:51:17;;;;;;;21.40;12.28;;;;;;;10.13;71.95;99762.17;1825724;77;20883;-79
2022/04/10 02:53:45;;;;;;;18.85;11.50;;;;;;;10.10;71.97;99771.09;1825769;78;20939;-82
2022/04/10 02:56:11;;;;;;;17.02;11.85;;;;;;;10.09;72.07;99775.13;1825009;77;20903;-82
2022/04/10 02:58:38;;;;;;;18.70;11.33;;;;;;;10.07;72.06;99779.19;1825000;78;21134;-82
2022/04/10 03:01:04;;;;;;;19.75;11.53;;;;;;;10.07;72.09;99792.73;1825147;78;20990;-83
2022/04/10 03:03:34;;;;;;;24.98;12.60;;;;;;;10.08;72.11;99789.19;1825136;78;20903;-82
2022/04/10 03:06:01;;;;;;;20.32;11.78;;;;;;;10.10;72.11;99802.53;1824975;77;20852;-82
2022/04/10 03:08:28;;;;;;;21.40;11.25;;;;;;;10.12;71.96;99808.98;1824897;78;20974;-83
2022/04/10 03:10:57;;;;;;;22.22;12.95;;;;;;;10.14;71.98;99807.92;1825106;78;21135;-82
2022/04/10 03:13:24;;;;;;;19.98;12.20;;;;;;;10.16;71.85;99806.52;1824907;78;20986;-84
2022/04/10 03:15:52;;;;;;;24.40;12.15;;;;;;;10.20;71.78;99804.49;1825044;77;20891;-82
2022/04/10 03:18:19;;;;;;;23.83;14.10;;;;;;;10.22;71.74;99805.22;1824850;78;20863;-82
2022/04/10 03:20:46;;;;;;;19.05;12.10;;;;;;;10.24;71.72;99804.16;1825096;78;21475;-83
2022/04/10 03:23:14;;;;;;;21.82;11.70;;;;;;;10.29;71.64;99809.97;1822192;78;21757;-82
2022/04/10 03:25:41;;;;;;;19.40;11.68;;;;;;;10.32;71.50;99800.56;1821548;78;20919;-82
2022/04/10 03:28:08;;;;;;;26.75;12.88;;;;;;;10.35;71.38;99801.63;1821413;78;21376;-83
2022/04/10 03:30:34;;;;;;;23.95;12.75;;;;;;;10.32;71.35;99803.66;1821744;78;21354;-82
2022/04/10 03:33:01;;;;;;;21.12;13.28;;;;;;;10.31;71.39;99817.21;1821473;78;20883;-82
2022/04/10 03:35:29;;;;;;;20.55;12.60;;;;;;;10.32;71.40;99832.48;1823156;78;21131;-80
2022/04/10 03:37:56;;;;;;;22.13;12.05;;;;;;;10.33;71.37;99840.22;1821873;78;20947;-84
2022/04/10 03:40:23;;;;;;;21.75;16.55;;;;;;;10.36;71.28;99846.57;1821552;78;21014;-82
2022/04/10 03:42:52;;;;;;;25.77;13.70;;;;;;;10.37;71.22;99841.67;1821343;78;20914;-82
2022/04/10 03:45:19;;;;;;;20.77;10.70;;;;;;;10.43;71.11;99850.07;1821511;78;20918;-83
2022/04/10 03:47:47;;;;;;;23.12;11.57;;;;;;;10.46;71.00;99855.91;1821628;78;21405;-80
2022/04/10 03:50:16;;;;;;;18.67;10.78;;;;;;;10.48;70.87;99850.08;1821336;78;21413;-82
2022/04/10 03:52:43;;;;;;;20.92;10.88;;;;;;;10.49;70.80;99857.02;1821717;78;20884;-83
2022/04/10 03:55:12;;;;;;;18.95;11.78;;;;;;;10.53;70.67;99861.06;1821579;78;20931;-82
2022/04/10 03:57:38;;;;;;;23.18;11.57;;;;;;;10.53;70.55;99861.55;1821402;78;20848;-83
2022/04/10 04:00:09;;;;;;;22.22;11.57;;;;;;;10.51;70.57;99859.51;1821472;78;20939;-83
2022/04/10 04:02:42;;;;;;;;;;;;;;;10.47;70.59;99861.53;1824136;78;21345;-82
2022/04/10 04:05:10;;;;;;;23.98;10.72;;;;;;;10.45;70.69;99854.25;1821730;78;20082;-81
2022/04/10 04:07:38;;;;;;;21.40;11.90;;;;;;;10.43;70.84;99857.45;1821864;78;20935;-83
2022/04/10 04:10:06;;;;;;;21.50;12.40;;;;;;;10.40;70.91;99857.65;1821664;78;20884;-82
2022/04/10 04:12:36;;;;;;;20.97;13.03;;;;;;;10.42;70.95;99859.69;1821842;78;21816;-83
2022/04/10 04:15:04;;;;;;;18.20;11.00;;;;;;;10.47;70.90;99859.36;1821974;78;20995;-82
2022/04/10 04:17:32;;;;;;;19.30;11.80;;;;;;;10.50;70.83;99856.53;1822024;78;20887;-84
2022/04/10 04:19:58;;;;;;;13.40;10.05;;;;;;;10.53;70.78;99857.61;1822326;78;20911;-83
2022/04/10 04:22:25;;;;;;;15.25;9.38;;;;;;;10.56;70.66;99863.48;1821502;78;20970;-83
2022/04/10 04:24:54;;;;;;;18.77;8.88;;;;;;;10.61;70.57;99870.19;1821416;78;20967;-83
2022/04/10 04:27:21;;;;;;;18.40;9.63;;;;;;;10.65;70.46;99863.30;1821385;78;20880;-85
2022/04/10 04:29:48;;;;;;;18.10;10.05;;;;;;;10.69;70.32;99859.48;1821909;78;20907;-83
2022/04/10 04:32:16;;;;;;;15.03;7.67;;;;;;;10.72;70.20;99859.27;1821363;78;20887;-83
2022/04/10 04:34:43;;;;;;;10.43;6.78;;;;;;;10.75;70.01;99862.14;1821633;78;21014;-83
2022/04/10 04:37:10;;;;;;;16.37;7.75;;;;;;;10.77;69.88;99866.80;1821609;78;21217;-85
2022/04/10 04:39:36;;;;;;;16.80;9.03;;;;;;;10.77;69.75;99863.70;1821289;78;21533;-83
2022/04/10 04:42:06;;;;;;;13.58;7.92;;;;;;;10.79;69.73;99874.92;1821334;78;20915;-85
2022/04/10 04:44:33;;;;;;;17.17;9.78;;;;;;;10.81;69.72;99876.12;1821724;78;21002;-83
2022/04/10 04:47:00;;;;;;;17.02;8.95;;;;;;;10.82;69.73;99883.52;1821368;78;21554;-85
2022/04/10 04:49:27;;;;;;;13.83;7.40;;;;;;;10.82;69.79;99884.34;1821380;78;21264;-85
2022/04/10 04:51:54;;;;;;;13.43;8.25;;;;;;;10.84;69.80;99886.87;1821643;78;20887;-85
2022/04/10 04:54:21;;;;;;;15.10;8.65;;;;;;;10.87;69.77;99882.25;1821278;78;21002;-82
2022/04/10 04:56:48;;;;;;;10.98;7.03;;;;;;;10.93;69.66;99887.50;1822612;78;20927;-84
2022/04/10 04:59:16;;;;;;;14.65;8.00;;;;;;;10.96;69.60;99886.81;1821760;78;20974;-84
2022/04/10 05:01:44;;;;;;;18.92;7.53;;;;;;;11.01;69.52;99889.09;1822477;78;21852;-83
2022/04/10 05:04:12;;;;;;;14.23;7.87;;;;;;;11.04;69.41;99894.11;1790291;78;20875;-83
2022/04/10 05:06:40;;;;;;;15.68;7.65;;;;;;;11.08;69.28;99894.25;1821303;78;20883;-84
2022/04/10 05:09:07;;;;;;;13.40;7.85;;;;;;;11.12;69.22;99892.24;1821230;78;20939;-84
2022/04/10 05:11:34;;;;;;;13.78;7.67;;;;;;;11.20;69.10;99889.86;1821311;78;20955;-85
2022/04/10 05:14:04;;;;;;;15.85;7.47;;;;;;;11.25;68.84;99882.51;1821283;78;20876;-84
2022/04/10 05:16:32;;;;;;;19.40;8.33;;;;;;;11.28;68.74;99880.95;1821249;78;20879;-84
2022/04/10 05:19:00;;;;;;;15.83;6.87;;;;;;;11.32;68.54;99882.89;1821367;78;20895;-83
2022/04/10 05:21:27;;;;;;;14.83;7.05;;;;;;;11.36;68.34;99881.67;1821306;78;20887;-84
2022/04/10 05:23:54;;;;;;;16.95;8.58;;;;;;;11.43;68.29;99890.80;1824313;78;21386;-83
2022/04/10 05:26:23;;;;;;;10.35;7.12;;;;;;;11.45;68.02;99878.39;1824847;78;21512;-83
2022/04/10 05:28:52;;;;;;;19.92;8.83;;;;;;;11.51;67.87;99886.26;1824666;78;20848;-84
2022/04/10 05:31:19;;;;;;;11.83;6.50;;;;;;;11.55;67.77;99885.91;1824736;78;20930;-86
2022/04/10 05:33:47;;;;;;;14.80;6.20;;;;;;;11.62;67.60;99887.59;1824746;78;20927;-84
2022/04/10 05:36:15;;;;;;;13.68;6.78;;;;;;;11.69;67.40;99889.27;1825061;78;20928;-85
2022/04/10 05:38:45;;;;;;;13.20;7.03;;;;;;;11.76;67.00;99883.45;1824954;78;21899;-85
2022/04/10 05:41:13;;;;;;;13.35;6.60;;;;;;;11.81;66.84;99885.23;1824686;78;21575;-85
2022/04/10 05:43:41;;;;;;;15.43;7.42;;;;;;;11.91;66.71;99895.89;1825395;78;20922;-84
2022/04/10 05:46:09;;;;;;;16.20;7.47;;;;;;;11.99;66.33;99891.38;1826159;78;21389;-84
2022/04/10 05:48:36;;;;;;;13.68;7.10;;;;;;;12.04;66.12;99898.41;1825045;78;20950;-84
2022/04/10 05:51:07;;;;;;;11.50;6.58;;;;;;;12.07;65.99;99899.96;1825311;78;21240;-82
2022/04/10 05:53:34;;;;;;;13.25;6.65;;;;;;;12.08;65.60;99899.85;1798188;78;20955;-84
2022/04/10 05:56:02;;;;;;;15.90;6.85;;;;;;;12.08;65.58;99908.22;1824906;78;21378;-84
2022/04/10 05:58:32;;;;;;;16.37;7.10;;;;;;;12.08;65.57;99909.05;1824981;78;20859;-83
2022/04/10 06:01:00;;;;;;;15.05;6.85;;;;;;;12.11;65.36;99913.23;1824973;78;20840;-84
2022/04/10 06:03:26;;;;;;;12.68;7.87;;;;;;;12.12;65.20;99909.17;1825257;78;21761;-84
2022/04/10 06:05:56;;;;;;;15.28;6.40;;;;;;;12.17;65.09;99914.07;1824934;78;20950;-84
2022/04/10 06:08:25;;;;;;;13.62;6.62;;;;;;;12.22;64.84;99913.22;1823866;78;21467;-84
2022/04/10 06:10:53;;;;;;;20.60;6.95;;;;;;;12.32;64.73;99919.94;1824998;78;20872;-85
2022/04/10 06:13:20;;;;;;;18.15;6.95;;;;;;;12.43;64.30;99918.12;1797868;78;20868;-82
2022/04/10 06:15:50;;;;;;;16.57;6.92;;;;;;;12.57;64.02;99924.08;1824927;78;20836;-84
2022/04/10 06:18:18;;;;;;;13.00;6.53;;;;;;;12.69;63.62;99917.83;1825021;78;21022;-84
2022/04/10 06:20:47;;;;;;;15.50;6.67;;;;;;;12.80;62.89;99930.13;1825008;78;20978;-84
2022/04/10 06:23:15;;;;;;;48.90;37.23;;;;;;;12.85;62.72;99930.13;1822979;78;20983;-82
2022/04/10 06:25:44;;;;;;;24.43;16.25;;;;;;;12.93;62.67;99932.13;1821607;78;20892;-83
2022/04/10 06:28:13;;;;;;;25.88;20.80;;;;;;;13.06;62.29;99927.53;1823183;78;21389;-83
2022/04/10 06:30:43;;;;;;;16.02;7.80;;;;;;;13.25;61.91;99929.51;1821315;78;20902;-84
2022/04/10 06:33:14;;;;;;;12.55;6.35;;;;;;;13.50;61.04;99924.87;1821816;78;20848;-84
2022/04/10 06:35:41;;;;;;;11.70;7.08;;;;;;;13.86;60.58;99925.37;1822016;78;20907;-85
2022/04/10 06:38:08;;;;;;;14.55;6.90;;;;;;;14.37;59.65;99925.80;1821627;78;21401;-85
2022/04/10 06:40:36;;;;;;;14.07;6.95;;;;;;;14.97;58.06;99938.20;1821955;78;21226;-81
2022/04/10 06:43:06;;;;;;;12.35;6.20;;;;;;;15.56;56.79;99938.53;1821924;78;20919;-83
2022/04/10 06:45:44;;;;;;;16.45;5.97;;;;;;;16.14;54.84;99947.71;1816056;78;21492;-82
2022/04/10 06:48:13;;;;;;;11.90;5.70;;;;;;;16.76;52.88;99957.72;1817824;78;21365;-83
2022/04/10 06:50:44;;;;;;;12.30;4.87;;;;;;;17.22;52.05;99957.23;1820273;78;20895;-84
2022/04/10 06:53:15;;;;;;;10.48;5.58;;;;;;;17.71;50.57;99954.16;1822499;78;21383;-83
2022/04/10 06:55:44;;;;;;;10.58;5.25;;;;;;;18.17;49.46;99954.33;1823959;78;20990;-85
2022/04/10 06:58:11;;;;;;;14.45;6.10;;;;;;;18.63;48.34;99954.87;1790822;78;21472;-86
2022/04/10 07:00:40;;;;;;;9.50;5.42;;;;;;;18.99;47.39;99955.17;1822006;78;20935;-83
2022/04/10 07:03:08;;;;;;;8.80;4.42;;;;;;;19.32;46.31;99947.22;1821517;78;20904;-83
2022/04/10 07:05:37;;;;;;;11.40;5.72;;;;;;;19.62;45.16;99955.87;1821743;78;21464;-82
2022/04/10 07:08:07;;;;;;;8.25;4.72;;;;;;;19.84;44.98;99954.39;1821968;78;21079;-84
2022/04/10 07:10:34;;;;;;;13.58;5.22;;;;;;;20.19;44.10;99950.17;1822156;78;20966;-81
2022/04/10 07:13:03;;;;;;;13.58;9.48;;;;;;;20.44;43.62;99947.73;1821828;78;20829;-83
2022/04/10 07:15:30;;;;;;;12.28;7.95;;;;;;;20.62;42.97;99949.36;1821608;78;20840;-85
2022/04/10 07:17:59;;;;;;;11.50;5.65;;;;;;;20.89;42.64;99950.72;1821595;78;21282;-83
2022/04/10 07:20:28;;;;;;;8.25;5.92;;;;;;;21.24;41.52;99953.32;1821806;78;20849;-84
2022/04/10 07:25:43;;;;;;;9.78;4.72;;;;;;;21.82;40.66;99951.54;1825317;78;20907;-85
2022/04/10 07:28:09;;;;;;;12.95;5.45;;;;;;;22.02;39.33;99954.52;1825408;78;20903;-82
2022/04/10 07:30:38;;;;;;;10.13;5.30;;;;;;;22.06;39.24;99952.63;1824878;78;21156;-84
2022/04/10 07:33:08;;;;;;;12.37;5.75;;;;;;;22.00;39.08;99959.20;1825269;78;20923;-83
2022/04/10 07:35:36;;;;;;;10.55;5.60;;;;;;;21.90;39.27;99958.97;1824992;78;21463;-84
2022/04/10 07:38:05;;;;;;;9.85;5.50;;;;;;;21.83;39.46;99959.38;1823716;78;20986;-84
2022/04/10 07:40:38;;;;;;;11.60;4.70;;;;;;;21.91;39.33;99959.79;1824917;78;20887;-84
2022/04/10 07:43:08;;;;;;;11.40;5.08;;;;;;;22.14;39.41;99965.05;1824792;78;20884;-85
2022/04/10 07:48:27;;;;;;;7.05;4.03;;;;;;;22.75;37.56;99966.20;1802070;78;20974;-84
2022/04/10 07:50:56;;;;;;;9.25;4.47;;;;;;;22.73;37.67;99971.73;1825636;78;20966;-85
2022/04/10 07:53:24;;;;;;;9.13;4.33;;;;;;;22.71;37.58;99975.09;1825497;78;20918;-82
2022/04/10 07:55:52;;;;;;;8.83;4.40;;;;;;;22.72;37.60;99970.09;1825448;78;21202;-85
2022/04/10 07:58:20;;;;;;;8.55;4.42;;;;;;;22.71;37.31;99969.75;1825110;78;20880;-82
2022/04/10 08:00:48;;;;;;;10.30;4.62;;;;;;;22.65;37.33;99965.66;1824902;78;21004;-85
2022/04/10 08:03:17;;;;;;;9.53;4.30;;;;;;;22.52;37.46;99967.64;1824958;78;20983;-84
2022/04/10 08:05:48;;;;;;;8.50;4.25;;;;;;;22.34;38.03;99961.34;1780161;78;21385;-85
2022/04/10 08:08:20;;;;;;;10.18;5.53;;;;;;;22.21;38.29;99959.31;1825015;78;21101;-84
2022/04/10 08:10:47;;;;;;;9.00;4.37;;;;;;;22.06;38.64;99969.16;1824984;78;20887;-86
2022/04/10 08:13:16;;;;;;;7.87;4.35;;;;;;;21.91;38.72;99961.95;1825015;78;20979;-85
2022/04/10 08:15:42;;;;;;;7.85;5.22;;;;;;;21.70;38.94;99963.99;1825373;78;20884;-84
2022/04/10 08:18:08;;;;;;;19.87;5.58;;;;;;;21.59;39.30;99962.23;1825376;78;20852;-82
2022/04/10 08:20:36;;;;;;;13.50;4.50;;;;;;;21.45;39.58;99956.68;1825319;78;21220;-84
2022/04/10 08:23:05;;;;;;;9.90;4.35;;;;;;;21.45;39.77;99948.67;1824847;78;20978;-84
2022/04/10 08:25:32;;;;;;;10.10;4.37;;;;;;;21.62;39.53;99951.23;1824951;77;21342;-84
2022/04/10 08:28:00;;;;;;;14.18;6.08;;;;;;;21.86;39.29;99944.83;1825018;78;20884;-84
2022/04/10 08:30:28;;;;;;;12.80;4.97;;;;;;;22.25;38.49;99936.57;1825015;78;20974;-82
2022/04/10 08:32:56;;;;;;;13.38;4.20;;;;;;;22.54;38.04;99930.39;1825063;77;20970;-85
2022/04/10 08:35:24;;;;;;;9.18;3.77;;;;;;;22.85;37.75;99926.61;1825015;77;21033;-84
2022/04/10 08:37:51;;;;;;;10.20;4.33;;;;;;;23.13;37.16;99924.58;1826869;77;21006;-79
2022/04/10 08:40:18;;;;;;;11.03;4.05;;;;;;;23.33;36.42;99921.56;1825632;77;20962;-84
2022/04/10 08:42:44;;;;;;;6.22;3.80;;;;;;;23.33;36.27;99922.09;1824562;77;21460;-85
2022/04/10 08:45:10;;;;;;;6.17;3.90;;;;;;;23.22;36.45;99917.25;1824811;78;21235;-84
2022/04/10 08:47:39;;;;;;;8.05;4.37;;;;;;;23.16;36.65;99916.98;1824924;77;20860;-83
2022/04/10 08:50:07;;;;;;;41.02;32.48;;;;;;;23.20;36.92;99924.64;1824906;77;20895;-84
2022/04/10 08:52:35;;;;;;;14.73;10.10;;;;;;;23.29;36.47;99918.13;1824879;78;20990;-84
2022/04/10 08:55:03;;;;;;;10.68;5.65;;;;;;;23.43;35.96;99919.89;1825209;78;21349;-83
2022/04/10 08:57:30;;;;;;;8.45;4.22;;;;;;;23.56;35.54;99917.84;1824807;78;21774;-84
2022/04/10 09:00:02;;;;;;;10.10;4.37;;;;;;;23.60;35.42;99912.42;1796335;78;20954;-84
2022/04/10 09:02:26;;;;;;;8.18;4.08;;;;;;;23.63;35.53;99912.02;1824130;78;20915;-84
2022/04/10 09:04:54;;;;;;;11.08;4.28;;;;;;;23.74;35.30;99912.81;1824876;77;20955;-84
2022/04/10 09:07:23;;;;;;;9.78;3.58;;;;;;;23.89;35.73;99909.25;1825122;77;21377;-83
2022/04/10 09:09:56;;;;;;;10.10;4.45;;;;;;;24.12;35.04;99908.95;1825712;78;21183;-84
2022/04/10 09:12:25;;;;;;;8.93;4.28;;;;;;;24.27;34.41;99911.52;1825642;78;21491;-84
2022/04/10 09:14:56;;;;;;;7.85;4.53;;;;;;;24.44;34.07;99912.02;1825189;78;20887;-85
2022/04/10 09:17:23;;;;;;;9.80;4.22;;;;;;;24.57;34.02;99906.22;1824398;78;20879;-86
2022/04/10 09:19:53;;;;;;;8.68;4.70;;;;;;;24.75;33.52;99905.65;1825895;77;20993;-82
2022/04/10 09:22:37;;;;;;;12.23;5.00;;;;;;;24.90;33.38;99910.85;1826193;78;21124;-82
2022/04/10 09:25:13;;;;;;;12.00;4.75;;;;;;;25.01;33.15;99916.96;1825035;78;20868;-85
2022/04/10 09:27:49;;;;;;;10.10;4.92;;;;;;;25.01;32.98;99917.45;1825050;78;20911;-83
2022/04/10 09:30:20;;;;;;;12.68;4.70;;;;;;;24.91;33.16;99905.78;1824932;78;21033;-84
2022/04/10 09:32:55;;;;;;;9.15;4.87;;;;;;;24.99;33.08;99911.45;1824851;78;20978;-83
2022/04/10 09:38:25;;;;;;;7.40;4.65;;;;;;;25.32;32.34;99899.97;1816414;79;22807;-85
2022/04/10 09:40:58;;;;;;;27.22;19.77;;;;;;;25.44;32.04;99905.05;1786973;80;20840;-84
2022/04/10 09:43:25;;;;;;;29.32;22.45;;;;;;;25.52;31.63;99895.42;1760119;80;21145;-83
2022/04/10 09:46:01;;;;;;;18.25;9.60;;;;;;;25.58;31.63;99896.46;1735141;80;20931;-85
2022/04/10 09:48:35;;;;;;;12.55;6.58;;;;;;;25.79;31.44;99898.92;1787424;80;20959;-83
2022/04/10 09:51:05;;;;;;;14.65;5.87;;;;;;;26.13;31.27;99886.78;1789595;80;20947;-84
2022/04/10 09:53:34;;;;;;;13.48;4.30;;;;;;;26.48;30.82;99881.88;1789951;80;20883;-84
2022/04/10 09:56:07;;;;;;;8.83;4.28;;;;;;;26.78;30.22;99886.17;1789714;79;21886;-85
2022/04/10 09:58:35;;;;;;;8.58;3.85;;;;;;;26.87;29.65;99890.25;1790047;80;20991;-84
2022/04/10 10:01:04;;;;;;;6.25;3.17;;;;;;;26.89;29.31;99887.35;1790529;80;20963;-84
2022/04/10 10:03:36;;;;;;;8.73;3.42;;;;;;;27.00;29.21;99892.03;1789604;80;20947;-86
2022/04/10 10:06:06;;;;;;;7.58;2.52;;;;;;;27.19;28.81;99882.67;1760079;80;20880;-84
2022/04/10 10:08:38;;;;;;;5.95;2.40;;;;;;;27.25;28.68;99884.00;1789518;80;20956;-83
2022/04/10 10:11:05;;;;;;;6.87;3.25;;;;;;;27.28;28.55;99881.42;1789565;80;20911;-84
2022/04/10 10:13:34;;;;;;;9.53;4.15;;;;;;;27.31;28.76;99891.73;1789559;80;20932;-84
2022/04/10 10:16:01;;;;;;;12.33;5.20;;;;;;;27.39;28.96;99891.47;1759035;80;21424;-83
2022/04/10 10:18:28;;;;;;;7.28;3.65;;;;;;;27.49;29.10;99893.13;1789632;80;21018;-83
2022/04/10 10:20:56;;;;;;;9.58;4.10;;;;;;;27.65;28.63;99895.77;1790101;80;21107;-83
2022/04/10 10:23:23;;;;;;;11.48;4.17;;;;;;;27.89;28.89;99891.42;1789497;79;20951;-84
2022/04/10 10:26:13;;;;;;;6.80;3.77;;;;;;;28.16;29.16;99890.30;1789953;80;21022;-84
2022/04/10 10:29:07;;;;;;;10.70;4.65;;;;;;;28.46;28.68;99898.45;1789949;80;20971;-82
2022/04/10 10:32:05;;;;;;;12.13;4.95;;;;;;;28.59;28.37;99893.41;1789607;80;20872;-82
2022/04/10 10:34:34;;;;;;;7.47;3.42;;;;;;;28.46;28.02;99899.80;1789884;79;21318;-83
2022/04/10 10:37:03;;;;;;;6.92;3.75;;;;;;;28.17;28.22;99894.13;1788792;79;20888;-84
2022/04/10 10:39:31;;;;;;;13.80;3.67;;;;;;;28.06;28.47;99888.96;1785302;80;20955;-83
2022/04/10 10:42:11;;;;;;;9.93;3.85;;;;;;;28.10;28.69;99893.36;1784905;80;20904;-83
2022/04/10 10:44:42;;;;;;;14.25;10.55;;;;;;;28.25;28.56;99886.25;1783298;80;20935;-85
2022/04/10 10:47:29;;;;;;;14.03;9.68;;;;;;;28.28;28.20;99889.33;1785130;80;21116;-84
2022/04/10 10:49:54;;;;;;;9.55;4.58;;;;;;;28.07;28.33;99893.83;1783774;80;20880;-84
2022/04/10 10:52:21;;;;;;;8.90;4.85;;;;;;;27.52;28.50;99895.89;1784009;80;21092;-84
2022/04/10 10:54:55;;;;;;;9.75;4.22;;;;;;;26.97;29.31;99895.67;1784047;80;20963;-84
2022/04/10 10:57:28;;;;;;;10.38;4.87;;;;;;;26.58;30.08;99898.39;1783895;80;20975;-83
2022/04/10 11:00:14;;;;;;;10.95;5.20;;;;;;;26.19;30.52;99897.50;1784758;80;21907;-84
2022/04/10 11:02:48;;;;;;;9.15;4.60;;;;;;;25.70;31.33;99892.13;1770616;80;21453;-82
2022/04/10 11:05:35;;;;;;;8.98;4.50;;;;;;;25.27;32.02;99896.56;1785336;80;20880;-82
2022/04/10 11:08:10;;;;;;;9.43;4.90;;;;;;;24.97;32.59;99897.45;1784079;80;20892;-84
2022/04/10 11:10:55;;;;;;;9.58;5.17;;;;;;;24.70;33.34;99894.71;1783783;80;20948;-83
2022/04/10 11:13:23;;;;;;;13.28;4.92;;;;;;;24.62;33.50;99889.52;1765803;80;21330;-84
2022/04/10 11:15:54;;;;;;;11.83;4.90;;;;;;;24.52;33.31;99885.05;1784129;80;20939;-83
2022/04/10 11:18:30;;;;;;;11.68;5.03;;;;;;;24.51;33.39;99882.89;1784322;80;20927;-80
2022/04/10 11:21:15;;;;;;;10.30;4.60;;;;;;;24.49;33.72;99875.56;1786741;80;20905;-82
2022/04/10 11:23:44;;;;;;;10.00;4.83;;;;;;;24.72;33.73;99880.59;1787165;79;20900;-83
2022/04/10 11:26:17;;;;;;;12.53;5.28;;;;;;;25.09;33.48;99884.25;1786684;79;20884;-84
2022/04/10 11:29:04;;;;;;;8.18;5.10;;;;;;;25.34;32.56;99874.57;1784270;80;21377;-84
2022/04/10 11:31:38;;;;;;;10.48;4.83;;;;;;;25.45;32.39;99866.41;1785091;80;20940;-82
2022/04/10 11:34:17;;;;;;;9.80;5.53;;;;;;;25.48;32.33;99868.70;1784380;80;20952;-85
2022/04/10 11:36:55;;;;;;;7.72;5.08;;;;;;;25.56;32.18;99866.30;1782621;80;20959;-84
2022/04/10 11:39:34;;;;;;;11.83;4.62;;;;;;;25.59;31.85;99868.56;1775735;80;20931;-84
2022/04/10 11:42:05;;;;;;;10.38;4.42;;;;;;;25.49;32.18;99864.15;1775589;80;21441;-84